Time;durP1;ratioP1;P1;durP2;ratioP2;P2;SDS_P1;SDS_P2;PMS_P1;PMS_P2;Temp;Humidity;BMP_temperature;BMP_pressure;BME280_temperature;BME280_humidity;BME280_pressure;Samples;Min_cycle;Max_cycle;Signal;HPM_P1;HPM_P2
2021/10/15 00:02:11;;;;;;;10.77;8.70;;;11.90;99.90;;;;;;5068622;28;20031;-52
2021/10/15 00:04:37;;;;;;;13.00;10.02;;;12.00;99.90;;;;;;5070696;28;20503;-53
2021/10/15 00:07:03;;;;;;;16.42;10.02;;;12.00;99.90;;;;;;5070716;28;20035;-55
2021/10/15 00:09:29;;;;;;;15.23;9.82;;;12.00;99.90;;;;;;5068499;28;20037;-55
2021/10/15 00:11:54;;;;;;;13.75;9.93;;;12.10;99.90;;;;;;5070427;28;20029;-56
2021/10/15 00:14:20;;;;;;;15.38;9.63;;;12.10;99.90;;;;;;5070326;28;20066;-56
2021/10/15 00:16:45;;;;;;;13.50;9.80;;;12.10;99.90;;;;;;5071145;28;20021;-55
2021/10/15 00:19:11;;;;;;;14.60;9.90;;;12.10;99.90;;;;;;5079479;28;20036;-55
2021/10/15 00:21:37;;;;;;;11.85;9.75;;;12.00;99.90;;;;;;5083006;28;20361;-59
2021/10/15 00:24:03;;;;;;;18.27;10.23;;;12.10;99.90;;;;;;5070187;28;20044;-53
2021/10/15 00:26:28;;;;;;;14.57;9.77;;;12.00;99.90;;;;;;5070795;28;20024;-53
2021/10/15 00:28:54;;;;;;;14.48;10.68;;;12.00;99.90;;;;;;5070454;28;20021;-56
2021/10/15 00:31:19;;;;;;;14.38;10.80;;;12.00;99.90;;;;;;5068532;28;20037;-51
2021/10/15 00:33:45;;;;;;;14.00;10.52;;;12.10;99.90;;;;;;5069406;28;20056;-56
2021/10/15 00:36:10;;;;;;;11.77;9.73;;;12.10;99.90;;;;;;5068474;28;20503;-54
2021/10/15 00:38:36;;;;;;;14.48;10.93;;;12.10;99.90;;;;;;5069727;28;20033;-55
2021/10/15 00:41:02;;;;;;;13.95;9.75;;;12.10;99.90;;;;;;5076001;28;20016;-53
2021/10/15 00:43:27;;;;;;;13.45;9.85;;;12.10;99.90;;;;;;5069654;28;20215;-54
2021/10/15 00:45:53;;;;;;;12.80;10.35;;;12.10;99.90;;;;;;5065555;28;20163;-51
2021/10/15 00:48:19;;;;;;;14.32;10.48;;;12.10;99.90;;;;;;5057477;28;20039;-55
2021/10/15 00:50:49;;;;;;;11.23;9.05;;;12.10;99.90;;;;;;5068093;28;20025;-54
2021/10/15 00:53:15;;;;;;;17.17;10.00;;;12.00;99.90;;;;;;5069105;28;20021;-51
2021/10/15 00:55:43;;;;;;;14.75;8.98;;;12.10;99.90;;;;;;5069354;28;20062;-53
2021/10/15 00:58:09;;;;;;;13.05;9.32;;;12.10;99.90;;;;;;5067744;28;20031;-58
2021/10/15 01:00:34;;;;;;;12.20;9.77;;;12.00;99.90;;;;;;5067260;28;20037;-53
2021/10/15 01:03:01;;;;;;;12.30;9.35;;;12.10;99.90;;;;;;5066880;28;20059;-56
2021/10/15 01:05:27;;;;;;;12.00;9.02;;;12.00;99.90;;;;;;5068101;28;20062;-52
2021/10/15 01:07:56;;;;;;;13.32;9.38;;;12.10;99.90;;;;;;5068668;28;20021;-52
2021/10/15 01:10:22;;;;;;;13.73;9.98;;;12.10;99.90;;;;;;5069154;28;20078;-54
2021/10/15 01:12:48;;;;;;;11.98;8.95;;;12.10;99.90;;;;;;5068928;28;20543;-53
2021/10/15 01:15:13;;;;;;;15.73;10.45;;;12.10;99.90;;;;;;5068017;28;20032;-55
2021/10/15 01:17:39;;;;;;;15.13;10.60;;;12.10;99.90;;;;;;5067997;28;20484;-52
2021/10/15 01:20:05;;;;;;;11.82;9.27;;;12.10;99.90;;;;;;5064495;28;20033;-53
2021/10/15 01:22:31;;;;;;;15.15;9.18;;;12.10;99.90;;;;;;5064419;28;20033;-55
2021/10/15 01:24:57;;;;;;;11.57;9.30;;;12.10;99.90;;;;;;5068994;28;20082;-53
2021/10/15 01:27:23;;;;;;;14.52;10.00;;;12.10;99.90;;;;;;5068880;28;20093;-56
2021/10/15 01:29:49;;;;;;;12.18;9.35;;;12.10;99.90;;;;;;5068654;28;20504;-57
2021/10/15 01:32:16;;;;;;;10.98;9.77;;;12.10;99.90;;;;;;5068547;28;20027;-54
2021/10/15 01:34:42;;;;;;;11.73;8.80;;;12.10;99.90;;;;;;5068080;28;20679;-52
2021/10/15 01:37:08;;;;;;;15.25;8.60;;;12.10;99.90;;;;;;5068820;28;20024;-54
2021/10/15 01:39:34;;;;;;;14.32;10.30;;;12.10;99.90;;;;;;5067208;28;20054;-56
2021/10/15 01:41:59;;;;;;;12.45;10.07;;;12.10;99.90;;;;;;5067918;28;20020;-55
2021/10/15 01:44:25;;;;;;;13.88;9.73;;;12.10;99.90;;;;;;5068429;28;20039;-52
2021/10/15 01:46:51;;;;;;;13.98;11.23;;;12.10;99.90;;;;;;5068734;28;20032;-57
2021/10/15 01:49:16;;;;;;;17.17;11.77;;;12.10;99.90;;;;;;5067887;28;20028;-51
2021/10/15 01:51:42;;;;;;;16.08;12.30;;;12.10;99.90;;;;;;5067238;28;20093;-53
2021/10/15 01:54:08;;;;;;;16.48;11.52;;;12.20;99.90;;;;;;5067699;28;20113;-57
2021/10/15 01:56:34;;;;;;;16.08;11.48;;;12.10;99.90;;;;;;5068605;28;20031;-50
2021/10/15 01:59:00;;;;;;;16.75;11.25;;;12.20;99.90;;;;;;5059269;28;20032;-55
2021/10/15 02:01:26;;;;;;;14.35;11.38;;;12.20;99.90;;;;;;5068287;28;20044;-52
2021/10/15 02:03:52;;;;;;;14.50;11.80;;;12.20;99.90;;;;;;5066862;28;20504;-56
2021/10/15 02:06:18;;;;;;;19.30;12.82;;;12.20;99.90;;;;;;5067113;28;20058;-57
2021/10/15 02:08:43;;;;;;;15.15;12.63;;;12.20;99.90;;;;;;5066396;28;20036;-54
2021/10/15 02:11:09;;;;;;;14.30;12.80;;;12.20;99.90;;;;;;5067038;28;20040;-56
2021/10/15 02:13:35;;;;;;;16.50;13.07;;;12.10;99.90;;;;;;5067394;28;20040;-50
2021/10/15 02:16:00;;;;;;;20.88;13.63;;;12.20;99.90;;;;;;5067928;28;20711;-56
2021/10/15 02:18:26;;;;;;;15.75;13.65;;;12.10;99.90;;;;;;5068130;28;20050;-55
2021/10/15 02:20:52;;;;;;;19.48;14.13;;;12.10;99.90;;;;;;5067657;28;20021;-53
2021/10/15 02:23:17;;;;;;;23.90;14.20;;;12.10;99.90;;;;;;5067587;28;20037;-54
2021/10/15 02:25:43;;;;;;;17.58;12.70;;;12.10;99.90;;;;;;5067875;28;20500;-53
2021/10/15 02:28:09;;;;;;;19.90;13.88;;;12.10;99.90;;;;;;5067849;28;20515;-58
2021/10/15 02:30:34;;;;;;;16.13;14.07;;;12.10;99.90;;;;;;5067820;28;20021;-50
2021/10/15 02:33:02;;;;;;;21.65;16.65;;;12.10;99.90;;;;;;5068144;28;20032;-52
2021/10/15 02:35:27;;;;;;;18.67;13.90;;;12.10;99.90;;;;;;5067901;28;20016;-53
2021/10/15 02:37:53;;;;;;;17.77;13.45;;;12.10;99.90;;;;;;5066994;28;20028;-56
2021/10/15 02:40:19;;;;;;;20.92;13.93;;;12.10;99.90;;;;;;5063691;28;20029;-50
2021/10/15 02:42:44;;;;;;;21.05;15.35;;;12.10;99.90;;;;;;5066568;28;20099;-58
2021/10/15 02:45:10;;;;;;;22.52;15.48;;;12.10;99.90;;;;;;5052362;28;20628;-53
2021/10/15 02:47:36;;;;;;;18.88;13.93;;;12.10;99.90;;;;;;5055944;28;20619;-54
2021/10/15 02:50:02;;;;;;;20.83;14.82;;;12.10;99.90;;;;;;5067546;28;20107;-54
2021/10/15 02:52:28;;;;;;;18.88;13.57;;;12.10;99.90;;;;;;5067706;28;20089;-55
2021/10/15 02:54:54;;;;;;;18.70;14.10;;;12.10;99.90;;;;;;5067835;28;20028;-53
2021/10/15 02:57:19;;;;;;;18.60;14.63;;;12.10;99.90;;;;;;5067653;28;20058;-52
2021/10/15 02:59:45;;;;;;;16.33;14.02;;;12.20;99.90;;;;;;5067226;28;20025;-52
2021/10/15 03:02:10;;;;;;;18.73;13.48;;;12.10;99.90;;;;;;5068102;28;20078;-53
2021/10/15 03:04:36;;;;;;;16.15;13.73;;;12.10;99.90;;;;;;5068211;28;20155;-58
2021/10/15 03:07:01;;;;;;;17.20;13.93;;;12.10;99.90;;;;;;5067401;28;20021;-57
2021/10/15 03:09:27;;;;;;;20.73;13.80;;;12.10;99.90;;;;;;5066783;28;20029;-55
2021/10/15 03:11:54;;;;;;;16.52;14.52;;;12.20;99.90;;;;;;5065272;28;20032;-53
2021/10/15 03:14:19;;;;;;;19.23;14.52;;;12.20;99.90;;;;;;5066792;28;20051;-54
2021/10/15 03:16:45;;;;;;;19.77;14.18;;;12.20;99.90;;;;;;5070642;28;20032;-56
2021/10/15 03:19:10;;;;;;;20.75;15.55;;;12.20;99.90;;;;;;5071144;28;20029;-53
2021/10/15 03:21:36;;;;;;;20.60;14.32;;;12.20;99.90;;;;;;5070781;28;20029;-52
2021/10/15 03:24:03;;;;;;;18.60;14.07;;;12.20;99.90;;;;;;5071009;28;20032;-57
2021/10/15 03:26:29;;;;;;;17.13;13.18;;;12.20;99.90;;;;;;5071649;28;20021;-55
2021/10/15 03:28:54;;;;;;;17.52;13.68;;;12.20;99.90;;;;;;5071305;28;20047;-52
2021/10/15 03:31:20;;;;;;;17.65;13.98;;;12.20;99.90;;;;;;5071143;28;20052;-53
2021/10/15 03:33:45;;;;;;;21.13;13.57;;;12.20;99.90;;;;;;5070749;28;20028;-51
2021/10/15 03:36:11;;;;;;;18.05;14.25;;;12.20;99.90;;;;;;5071085;28;20033;-55
2021/10/15 03:38:37;;;;;;;22.55;14.45;;;12.20;99.90;;;;;;5070307;28;20052;-52
2021/10/15 03:41:02;;;;;;;14.98;13.00;;;12.20;99.90;;;;;;5070693;28;20023;-57
2021/10/15 03:43:28;;;;;;;19.98;14.15;;;12.30;99.90;;;;;;5069998;28;20060;-55
2021/10/15 03:45:53;;;;;;;16.98;13.35;;;12.30;99.90;;;;;;5070182;28;20028;-55
2021/10/15 03:48:19;;;;;;;19.83;14.50;;;12.30;99.90;;;;;;5071008;28;20035;-53
2021/10/15 03:50:44;;;;;;;17.83;13.40;;;12.30;99.90;;;;;;5070400;28;20028;-57
2021/10/15 03:53:10;;;;;;;15.75;12.55;;;12.30;99.90;;;;;;5070583;28;20560;-55
2021/10/15 03:55:36;;;;;;;20.77;14.07;;;12.30;99.90;;;;;;5070690;28;20111;-56
2021/10/15 03:58:01;;;;;;;21.17;13.45;;;12.30;99.90;;;;;;5071282;28;20059;-56
2021/10/15 04:00:27;;;;;;;16.38;14.38;;;12.20;99.90;;;;;;5070336;28;20035;-56
2021/10/15 04:02:52;;;;;;;23.30;15.10;;;12.20;99.90;;;;;;5070623;28;20422;-53
2021/10/15 04:05:18;;;;;;;18.52;14.25;;;12.30;99.90;;;;;;5070418;28;20030;-55
2021/10/15 04:07:44;;;;;;;20.30;15.00;;;12.20;99.90;;;;;;5070143;28;20377;-58
2021/10/15 04:10:10;;;;;;;19.58;14.48;;;12.20;99.90;;;;;;5070108;28;20146;-58
2021/10/15 04:12:36;;;;;;;18.85;13.48;;;12.30;99.90;;;;;;5070131;28;20032;-57
2021/10/15 04:15:04;;;;;;;16.63;14.00;;;12.30;99.90;;;;;;5070159;28;20044;-57
2021/10/15 04:17:30;;;;;;;18.48;13.90;;;12.30;99.90;;;;;;5070583;28;20036;-57
2021/10/15 04:19:55;;;;;;;18.77;13.93;;;12.20;99.90;;;;;;5069599;28;20642;-52
2021/10/15 04:22:21;;;;;;;18.98;13.32;;;12.30;99.90;;;;;;5070003;28;20020;-56
2021/10/15 04:24:47;;;;;;;15.60;12.88;;;12.30;99.90;;;;;;5070716;28;20107;-56
2021/10/15 04:27:12;;;;;;;20.65;12.77;;;12.30;99.90;;;;;;5068859;28;20377;-51
2021/10/15 04:29:38;;;;;;;15.95;11.98;;;12.30;99.90;;;;;;5069625;28;20112;-56
2021/10/15 04:32:04;;;;;;;21.75;12.90;;;12.30;99.90;;;;;;5069822;28;20091;-54
2021/10/15 04:34:30;;;;;;;20.35;12.13;;;12.20;99.90;;;;;;5070390;28;20036;-55
2021/10/15 04:36:55;;;;;;;13.30;11.13;;;12.30;99.90;;;;;;5065110;28;20032;-54
2021/10/15 04:39:21;;;;;;;17.48;11.77;;;12.20;99.90;;;;;;5067691;28;20028;-53
2021/10/15 04:41:46;;;;;;;14.70;11.40;;;12.20;99.90;;;;;;5069995;28;20051;-50
2021/10/15 04:44:13;;;;;;;14.95;12.05;;;12.30;99.90;;;;;;5068798;28;20494;-54
2021/10/15 04:46:39;;;;;;;14.15;11.32;;;12.30;99.90;;;;;;5069538;28;20024;-58
2021/10/15 04:49:05;;;;;;;13.38;10.52;;;12.30;99.90;;;;;;5069270;28;20032;-55
2021/10/15 04:51:30;;;;;;;16.30;11.20;;;12.30;99.90;;;;;;5069356;28;20511;-53
2021/10/15 04:53:56;;;;;;;15.55;10.75;;;12.30;99.90;;;;;;5069193;28;20618;-54
2021/10/15 04:56:21;;;;;;;14.15;10.63;;;12.30;99.90;;;;;;5069586;28;20033;-55
2021/10/15 04:58:47;;;;;;;14.73;11.85;;;12.30;99.90;;;;;;5069384;28;20024;-52
2021/10/15 05:01:12;;;;;;;14.15;11.57;;;12.30;99.90;;;;;;5069525;28;20021;-54
2021/10/15 05:03:38;;;;;;;16.20;11.10;;;12.30;99.90;;;;;;5069638;28;20553;-52
2021/10/15 05:06:04;;;;;;;14.60;13.05;;;12.30;99.90;;;;;;5069190;28;20032;-54
2021/10/15 05:08:33;;;;;;;17.77;12.60;;;12.20;99.90;;;;;;5068238;28;20058;-52
2021/10/15 05:10:59;;;;;;;16.70;12.25;;;12.20;99.90;;;;;;5069408;28;20648;-50
2021/10/15 05:13:25;;;;;;;15.95;12.90;;;12.20;99.90;;;;;;5068109;28;20107;-55
2021/10/15 05:15:50;;;;;;;15.93;11.80;;;12.10;99.90;;;;;;5069224;28;20086;-54
2021/10/15 05:18:17;;;;;;;19.67;12.23;;;12.10;99.90;;;;;;5069782;28;20032;-55
2021/10/15 05:20:44;;;;;;;18.63;14.35;;;12.00;99.90;;;;;;5069100;28;20459;-56
2021/10/15 05:23:10;;;;;;;19.25;13.85;;;12.00;99.90;;;;;;5068758;28;20028;-55
2021/10/15 05:25:36;;;;;;;19.55;14.63;;;12.00;99.90;;;;;;5068320;28;20025;-52
2021/10/15 05:28:03;;;;;;;24.15;15.43;;;12.00;99.90;;;;;;5068881;28;20024;-50
2021/10/15 05:30:30;;;;;;;20.27;15.45;;;12.00;99.90;;;;;;5068354;28;20400;-51
2021/10/15 05:32:56;;;;;;;18.13;14.55;;;12.00;99.90;;;;;;5068842;28;20027;-55
2021/10/15 05:35:21;;;;;;;19.73;14.90;;;12.00;99.90;;;;;;5068762;28;20032;-54
2021/10/15 05:37:47;;;;;;;20.15;15.40;;;11.90;99.90;;;;;;5069283;28;20021;-55
2021/10/15 05:40:13;;;;;;;21.77;16.92;;;12.00;99.90;;;;;;5074399;28;20418;-52
2021/10/15 05:42:44;;;;;;;20.95;16.60;;;12.00;99.90;;;;;;5087548;28;20024;-53
2021/10/15 05:45:09;;;;;;;24.02;18.25;;;12.00;99.90;;;;;;5064406;28;20035;-55
2021/10/15 05:47:35;;;;;;;22.65;17.13;;;12.00;99.90;;;;;;5068421;28;20036;-52
2021/10/15 05:50:01;;;;;;;22.45;16.15;;;12.00;99.90;;;;;;5068677;28;20025;-53
2021/10/15 05:52:47;;;;;;;22.63;16.95;;;12.00;99.90;;;;;;5067791;28;20028;-52
2021/10/15 06:00:23;;;;;;;19.25;16.75;;;11.90;99.90;;;;;;5065811;28;20111;-52
2021/10/15 06:02:49;;;;;;;21.48;16.00;;;11.90;99.90;;;;;;5067975;28;20016;-51
2021/10/15 06:15:50;;;;;;;22.80;19.05;;;11.80;99.90;;;;;;5067363;28;20063;-51
2021/10/15 06:18:23;;;;;;;20.92;17.60;;;11.80;99.90;;;;;;5068224;28;20016;-54
2021/10/15 06:20:52;;;;;;;21.80;18.55;;;11.70;99.90;;;;;;5067446;28;20017;-54
2021/10/15 06:23:19;;;;;;;23.98;18.67;;;11.70;99.90;;;;;;5054643;28;20523;-53
2021/10/15 06:25:45;;;;;;;23.13;18.08;;;11.70;99.90;;;;;;5065944;28;20079;-52
2021/10/15 06:28:11;;;;;;;21.15;16.38;;;11.70;99.90;;;;;;5067790;28;20076;-50
2021/10/15 06:30:38;;;;;;;23.30;19.60;;;11.60;99.90;;;;;;5066615;28;20055;-49
2021/10/15 06:33:04;;;;;;;23.80;20.65;;;11.60;99.90;;;;;;5065199;28;20435;-49
2021/10/15 06:35:30;;;;;;;14.40;12.23;;;11.60;99.90;;;;;;5066564;28;20058;-49
2021/10/15 06:37:56;;;;;;;13.10;7.97;;;11.50;99.90;;;;;;5065956;28;20020;-49
2021/10/15 06:40:22;;;;;;;9.32;5.28;;;11.30;99.90;;;;;;5068120;28;20480;-51
2021/10/15 06:42:48;;;;;;;4.30;3.90;;;11.20;99.90;;;;;;5057563;28;20047;-50
2021/10/15 06:45:14;;;;;;;4.63;3.60;;;11.10;99.90;;;;;;5048689;28;20025;-50
2021/10/15 06:47:40;;;;;;;3.90;3.17;;;11.00;99.90;;;;;;5048356;28;20059;-50
2021/10/15 06:50:06;;;;;;;3.97;2.63;;;11.00;99.90;;;;;;5054112;28;20060;-50
2021/10/15 06:52:36;;;;;;;4.55;3.20;;;10.90;99.90;;;;;;5067565;28;20577;-49
2021/10/15 06:55:06;;;;;;;4.43;2.15;;;10.80;99.90;;;;;;5066679;28;20063;-51
2021/10/15 06:57:32;;;;;;;2.25;1.55;;;10.70;99.90;;;;;;5064550;28;20032;-49
2021/10/15 06:59:57;;;;;;;2.00;1.35;;;10.70;99.90;;;;;;5067694;28;20117;-49
2021/10/15 07:02:23;;;;;;;1.50;0.60;;;10.70;99.90;;;;;;5067694;28;20044;-49
2021/10/15 07:04:48;;;;;;;1.88;0.60;;;10.50;99.90;;;;;;5067420;28;20613;-50
2021/10/15 07:07:15;;;;;;;0.88;0.55;;;10.40;99.90;;;;;;5067432;28;20499;-52
2021/10/15 07:09:40;;;;;;;2.45;0.50;;;10.30;99.90;;;;;;5067443;28;20044;-49
2021/10/15 07:12:06;;;;;;;2.25;0.95;;;10.10;99.90;;;;;;5067656;28;20407;-51
2021/10/15 07:14:31;;;;;;;1.23;0.55;;;10.10;99.90;;;;;;5066420;28;20036;-49
2021/10/15 07:16:57;;;;;;;0.43;0.40;;;10.10;99.90;;;;;;5067132;28;20055;-52
2021/10/15 07:19:23;;;;;;;2.38;0.70;;;10.00;99.90;;;;;;5067140;28;20036;-50
2021/10/15 07:21:49;;;;;;;4.38;0.70;;;10.00;99.90;;;;;;5067332;28;20021;-52
2021/10/15 07:24:14;;;;;;;3.22;0.85;;;9.90;99.90;;;;;;5067458;28;20108;-49
2021/10/15 07:26:40;;;;;;;2.80;0.60;;;9.90;99.90;;;;;;5067766;28;20111;-52
2021/10/15 07:29:05;;;;;;;1.73;0.88;;;9.80;99.90;;;;;;5067312;28;20495;-50
2021/10/15 07:31:31;;;;;;;1.90;0.95;;;9.90;99.90;;;;;;5067623;28;20056;-50
2021/10/15 07:33:57;;;;;;;3.83;0.55;;;9.80;99.90;;;;;;5065794;28;20052;-51
2021/10/15 07:36:22;;;;;;;1.52;0.60;;;9.80;99.90;;;;;;5067775;28;20028;-52
2021/10/15 07:38:48;;;;;;;2.50;0.60;;;9.80;99.90;;;;;;5067349;28;20472;-54
2021/10/15 07:41:13;;;;;;;1.33;0.40;;;9.80;99.90;;;;;;5069052;28;20514;-49
2021/10/15 07:43:40;;;;;;;4.03;0.63;;;9.80;99.90;;;;;;5066599;28;20443;-51
2021/10/15 07:46:05;;;;;;;1.88;0.35;;;9.80;99.90;;;;;;5066935;28;20542;-49
2021/10/15 07:48:31;;;;;;;1.63;0.65;;;9.80;99.90;;;;;;5067349;28;20036;-53
2021/10/15 07:50:57;;;;;;;1.15;0.35;;;9.80;99.90;;;;;;5066661;28;20373;-54
2021/10/15 07:53:23;;;;;;;1.85;0.68;;;9.80;99.90;;;;;;5067460;28;20025;-49
2021/10/15 07:55:49;;;;;;;2.15;0.55;;;9.80;99.90;;;;;;5068012;28;20112;-53
2021/10/15 07:58:15;;;;;;;1.50;0.77;;;9.80;99.90;;;;;;5065754;28;20021;-49
2021/10/15 08:00:41;;;;;;;1.10;0.40;;;9.80;99.90;;;;;;5066791;28;20082;-49
2021/10/15 08:03:07;;;;;;;6.40;1.10;;;9.80;99.90;;;;;;5069229;28;20434;-51
2021/10/15 08:05:33;;;;;;;2.38;0.77;;;9.70;99.90;;;;;;5070804;28;20506;-50
2021/10/15 08:07:58;;;;;;;5.75;0.65;;;9.70;99.90;;;;;;5070142;28;20029;-50
2021/10/15 08:10:25;;;;;;;3.63;0.70;;;9.70;99.90;;;;;;5068540;28;20032;-50
2021/10/15 08:12:50;;;;;;;2.95;0.90;;;9.70;99.90;;;;;;5069921;28;20103;-50
2021/10/15 08:15:17;;;;;;;2.50;0.43;;;9.60;99.90;;;;;;5070028;28;20099;-50
2021/10/15 08:17:44;;;;;;;3.97;0.80;;;9.70;99.90;;;;;;5069532;28;20090;-51
2021/10/15 08:20:11;;;;;;;3.42;0.50;;;9.70;99.90;;;;;;5069952;28;20040;-51
2021/10/15 08:22:37;;;;;;;2.17;0.80;;;9.70;99.90;;;;;;5069936;28;20434;-53
2021/10/15 08:25:04;;;;;;;2.40;0.60;;;9.70;99.90;;;;;;5069964;28;20029;-50
2021/10/15 08:27:29;;;;;;;1.67;0.45;;;9.70;99.90;;;;;;5069580;28;20035;-50
2021/10/15 08:29:55;;;;;;;3.53;0.85;;;9.80;99.90;;;;;;5069558;28;20037;-49
2021/10/15 08:32:20;;;;;;;2.10;0.80;;;9.80;99.90;;;;;;5070165;28;20033;-49
2021/10/15 08:34:46;;;;;;;3.08;0.70;;;9.80;99.90;;;;;;5068394;28;20429;-51
2021/10/15 08:37:11;;;;;;;4.40;1.00;;;9.90;99.90;;;;;;5070052;28;20116;-49
2021/10/15 08:39:37;;;;;;;2.25;0.68;;;9.90;99.90;;;;;;5068885;28;20120;-49
2021/10/15 08:42:03;;;;;;;2.15;0.80;;;9.90;99.90;;;;;;5070557;28;20031;-50
2021/10/15 08:44:34;;;;;;;3.35;1.08;;;9.90;99.90;;;;;;5069366;28;20035;-50
2021/10/15 08:46:59;;;;;;;3.50;1.02;;;9.90;99.90;;;;;;5069216;28;20492;-51
2021/10/15 08:49:25;;;;;;;1.15;0.63;;;9.90;99.90;;;;;;5068994;28;20120;-49
2021/10/15 08:51:52;;;;;;;2.22;0.80;;;9.90;99.90;;;;;;5069848;28;20131;-52
2021/10/15 08:54:17;;;;;;;5.63;1.10;;;9.90;99.90;;;;;;5069700;28;20036;-51
2021/10/15 08:56:43;;;;;;;2.55;0.77;;;9.90;99.90;;;;;;5069852;28;20040;-51
2021/10/15 08:59:09;;;;;;;2.00;0.88;;;9.90;99.90;;;;;;5069470;28;20025;-49
2021/10/15 09:01:48;;;;;;;1.80;0.50;;;9.90;99.90;;;;;;5069877;28;20048;-50
2021/10/15 09:04:18;;;;;;;3.80;0.90;;;9.90;99.90;;;;;;5070011;28;20411;-49
2021/10/15 09:06:46;;;;;;;4.25;1.05;;;10.00;99.90;;;;;;5069572;28;20179;-49
2021/10/15 09:09:11;;;;;;;4.47;1.10;;;10.00;99.90;;;;;;5069022;28;20487;-49
2021/10/15 09:11:39;;;;;;;5.43;0.95;;;10.00;99.90;;;;;;5069465;28;20033;-49
2021/10/15 09:14:17;;;;;;;4.47;1.23;;;10.00;99.90;;;;;;5069651;28;20133;-50
2021/10/15 09:17:09;;;;;;;4.10;1.27;;;10.00;99.90;;;;;;5068392;28;20025;-50
2021/10/15 09:19:42;;;;;;;5.55;1.02;;;10.10;99.90;;;;;;5069088;28;20503;-50
2021/10/15 09:22:17;;;;;;;2.42;0.88;;;10.10;99.90;;;;;;5069014;28;20033;-50
2021/10/15 09:24:50;;;;;;;3.90;0.95;;;10.20;99.90;;;;;;5069506;28;20032;-51
2021/10/15 09:27:17;;;;;;;2.20;1.10;;;10.20;99.90;;;;;;5068915;28;20380;-52
2021/10/15 09:29:49;;;;;;;3.80;1.30;;;10.30;99.90;;;;;;5067468;28;20028;-49
2021/10/15 09:32:17;;;;;;;2.83;1.35;;;10.30;99.90;;;;;;5068782;28;20570;-50
2021/10/15 09:34:44;;;;;;;4.85;1.52;;;10.30;99.90;;;;;;5067452;28;20499;-52
2021/10/15 09:37:16;;;;;;;5.25;1.38;;;10.30;99.90;;;;;;5068300;28;20040;-49
2021/10/15 09:39:42;;;;;;;4.30;0.90;;;10.30;99.90;;;;;;5068493;28;20095;-53
2021/10/15 09:42:38;;;;;;;5.68;1.65;;;10.40;99.90;;;;;;5068380;28;20486;-50
2021/10/15 09:45:12;;;;;;;3.97;1.13;;;10.50;99.90;;;;;;5060040;28;20047;-52
2021/10/15 09:47:38;;;;;;;4.97;1.40;;;10.50;99.90;;;;;;5067763;28;20307;-50
2021/10/15 09:50:06;;;;;;;1.85;0.75;;;10.50;99.90;;;;;;5068264;28;20052;-51
2021/10/15 09:52:50;;;;;;;8.30;1.65;;;10.50;99.90;;;;;;5067064;28;20024;-49
2021/10/15 09:55:20;;;;;;;9.27;1.50;;;10.50;99.90;;;;;;5068420;28;20078;-50
2021/10/15 09:57:49;;;;;;;3.80;1.33;;;10.60;99.90;;;;;;5068051;28;20040;-53
2021/10/15 10:00:18;;;;;;;4.65;1.40;;;10.70;99.90;;;;;;5068160;28;20012;-49
2021/10/15 10:02:45;;;;;;;8.95;1.55;;;10.80;99.90;;;;;;5068147;28;20024;-50
2021/10/15 10:05:13;;;;;;;6.80;1.80;;;10.80;99.90;;;;;;5067543;28;20745;-49
2021/10/15 10:07:41;;;;;;;4.80;1.40;;;10.90;99.90;;;;;;5067047;28;20028;-51
2021/10/15 10:10:09;;;;;;;4.70;1.58;;;11.00;99.90;;;;;;5067714;28;20079;-50
2021/10/15 10:12:36;;;;;;;5.32;1.48;;;11.10;99.90;;;;;;5067920;28;20056;-50
2021/10/15 10:15:04;;;;;;;8.13;1.55;;;11.10;99.90;;;;;;5066525;28;20582;-50
2021/10/15 10:17:32;;;;;;;6.93;2.00;;;11.20;99.90;;;;;;5066346;28;20142;-50
2021/10/15 10:20:06;;;;;;;11.43;2.50;;;11.20;99.90;;;;;;5066820;28;20437;-51
2021/10/15 10:22:32;;;;;;;7.68;1.80;;;11.30;99.90;;;;;;5066958;28;20036;-49
2021/10/15 10:25:00;;;;;;;8.65;1.83;;;11.40;99.90;;;;;;5066500;28;20059;-54
2021/10/15 10:27:31;;;;;;;7.35;2.50;;;11.40;99.90;;;;;;5067520;28;20190;-50
2021/10/15 10:29:57;;;;;;;6.88;2.63;;;11.40;99.90;;;;;;5066270;28;20040;-50
2021/10/15 10:32:25;;;;;;;11.57;1.77;;;11.50;99.90;;;;;;5066841;28;20543;-49
2021/10/15 10:34:51;;;;;;;8.38;2.13;;;11.50;99.90;;;;;;5066912;28;20527;-51
2021/10/15 10:37:18;;;;;;;9.07;1.80;;;11.50;99.90;;;;;;5067385;28;20060;-49
2021/10/15 10:39:45;;;;;;;11.85;2.88;;;11.50;99.90;;;;;;5069161;28;20035;-50
2021/10/15 10:42:18;;;;;;;10.07;3.08;;;11.50;99.90;;;;;;5072129;28;20391;-50
2021/10/15 10:44:49;;;;;;;10.88;2.13;;;11.50;99.90;;;;;;5065989;28;20063;-50
2021/10/15 10:47:20;;;;;;;14.27;2.70;;;11.60;99.90;;;;;;5066066;28;20073;-51
2021/10/15 10:50:08;;;;;;;8.13;1.98;;;11.60;99.90;;;;;;5047599;28;20025;-50
2021/10/15 10:52:55;;;;;;;11.05;2.92;;;11.70;99.90;;;;;;5064905;28;20028;-51
2021/10/15 10:55:39;;;;;;;10.10;2.28;;;11.80;99.90;;;;;;5067907;28;20029;-54
2021/10/15 10:58:29;;;;;;;14.20;2.55;;;11.80;99.90;;;;;;5056150;28;20052;-49
2021/10/15 11:01:18;;;;;;;9.38;2.15;;;11.80;99.90;;;;;;5055961;28;20021;-49
2021/10/15 11:03:44;;;;;;;11.55;2.55;;;11.90;99.90;;;;;;5066247;28;20561;-49
2021/10/15 11:06:09;;;;;;;6.55;1.98;;;11.80;99.90;;;;;;5067578;28;20060;-50
2021/10/15 11:08:36;;;;;;;11.27;2.70;;;11.90;99.90;;;;;;5067460;28;20039;-52
2021/10/15 11:11:19;;;;;;;9.15;2.92;;;12.00;99.90;;;;;;5067188;28;20036;-51
2021/10/15 11:13:46;;;;;;;11.52;2.40;;;12.10;99.90;;;;;;5065906;28;20048;-52
2021/10/15 11:16:22;;;;;;;12.15;2.97;;;12.20;99.90;;;;;;5067129;28;20210;-53
2021/10/15 11:18:47;;;;;;;8.23;2.33;;;12.20;99.90;;;;;;5067441;28;20097;-52
2021/10/15 11:21:13;;;;;;;13.65;2.90;;;12.30;99.90;;;;;;5067175;28;20468;-50
2021/10/15 11:23:39;;;;;;;9.32;2.10;;;12.30;99.90;;;;;;5067669;28;20060;-51
2021/10/15 11:26:05;;;;;;;13.95;3.25;;;12.30;99.90;;;;;;5067629;28;20056;-50
2021/10/15 11:28:31;;;;;;;11.15;2.33;;;12.10;99.90;;;;;;5067151;28;20035;-49
2021/10/15 11:30:58;;;;;;;11.00;2.55;;;12.10;99.90;;;;;;5067371;28;20032;-52
2021/10/15 11:33:25;;;;;;;6.57;2.67;;;12.20;99.90;;;;;;5067339;28;20025;-53
2021/10/15 11:35:52;;;;;;;9.82;1.70;;;12.30;99.90;;;;;;5067488;28;20016;-51
2021/10/15 11:38:25;;;;;;;7.05;1.88;;;12.40;99.90;;;;;;5071394;28;20029;-53
2021/10/15 11:41:03;;;;;;;6.43;1.55;;;12.40;99.90;;;;;;5082683;28;20052;-53
2021/10/15 11:43:31;;;;;;;6.18;1.33;;;12.40;99.90;;;;;;5091931;28;20162;-52
2021/10/15 11:46:04;;;;;;;5.28;1.95;;;12.30;99.90;;;;;;5088822;28;20026;-51
2021/10/15 11:48:34;;;;;;;5.95;1.20;;;12.20;99.90;;;;;;5071073;28;20028;-51
2021/10/15 11:51:13;;;;;;;7.22;1.55;;;12.00;99.90;;;;;;5068580;28;20020;-52
2021/10/15 11:53:42;;;;;;;8.98;1.50;;;11.90;99.90;;;;;;5070733;28;20484;-51
2021/10/15 11:56:11;;;;;;;5.40;1.90;;;11.90;99.90;;;;;;5068796;28;20031;-53
2021/10/15 11:58:44;;;;;;;7.32;1.40;;;11.90;99.90;;;;;;5070968;28;20020;-52
2021/10/15 12:01:11;;;;;;;6.60;2.42;;;11.90;99.90;;;;;;5070780;28;20067;-50
2021/10/15 12:03:37;;;;;;;8.07;1.65;;;12.00;99.90;;;;;;5070985;28;20021;-50
2021/10/15 12:06:25;;;;;;;8.25;1.63;;;11.90;99.90;;;;;;5070428;28;20153;-51
2021/10/15 12:08:54;;;;;;;10.57;2.30;;;11.90;99.90;;;;;;5070518;28;20025;-51
2021/10/15 12:11:40;;;;;;;8.70;1.58;;;11.90;99.90;;;;;;5093724;22;20052;-52
2021/10/15 12:14:08;;;;;;;4.97;1.75;;;12.00;99.90;;;;;;5056851;28;20451;-51
2021/10/15 12:16:35;;;;;;;4.55;1.30;;;12.10;99.90;;;;;;5070108;28;20031;-52
2021/10/15 12:19:18;;;;;;;11.05;1.90;;;12.20;99.90;;;;;;5069558;28;20167;-51
2021/10/15 12:22:10;;;;;;;4.47;1.30;;;12.20;99.90;;;;;;5049644;28;20017;-54
2021/10/15 12:24:44;;;;;;;12.25;2.15;;;12.30;99.90;;;;;;5049955;28;20454;-55
2021/10/15 12:27:17;;;;;;;9.32;1.80;;;12.40;99.90;;;;;;5050335;28;20112;-50
2021/10/15 12:29:55;;;;;;;12.02;1.88;;;12.40;99.90;;;;;;5049834;28;20032;-54
2021/10/15 12:32:27;;;;;;;4.90;1.15;;;12.50;99.90;;;;;;5050113;28;20056;-55
2021/10/15 12:34:55;;;;;;;8.65;1.90;;;12.50;99.90;;;;;;5049452;28;20033;-53
2021/10/15 12:37:36;;;;;;;4.35;1.30;;;12.40;99.90;;;;;;5049620;28;20028;-55
2021/10/15 12:40:34;;;;;;;4.53;2.05;;;12.40;99.90;;;;;;5054788;28;20021;-54
2021/10/15 12:43:03;;;;;;;6.38;1.20;;;12.30;99.90;;;;;;5020873;28;20042;-50
2021/10/15 12:45:33;;;;;;;5.28;1.63;;;12.40;99.90;;;;;;5030782;28;20034;-52
2021/10/15 12:48:01;;;;;;;12.32;1.52;;;12.40;99.90;;;;;;5049725;28;20583;-52
2021/10/15 12:50:29;;;;;;;9.05;2.17;;;12.50;99.90;;;;;;5048644;28;20602;-55
2021/10/15 12:52:56;;;;;;;6.47;2.20;;;12.60;99.90;;;;;;5048333;28;20029;-50
2021/10/15 12:55:25;;;;;;;9.10;1.88;;;12.60;99.90;;;;;;5049327;28;20025;-52
2021/10/15 12:58:02;;;;;;;11.00;2.03;;;12.50;99.90;;;;;;5048611;28;20108;-53